PAUN/UNK METAR and TAF weather

Enter ICAO airport designator
Station Type Date Time Source
PAUN METAR 2020/11/28 18:56 UTC NOAA

PAUN 281856Z AUTO 10008KT 10SM CLR M16/M18 A2916 RMK AO2 SLP879 T11611178 FZRANO


Station Type Date Time Source
PAUN Decoded METAR 2020/11/28 18:56 UTC NOAA

Unalakleet, AK, United States (PAUN) 63-53N 160-48W 6M
Nov 28, 2020 - 01:56 PM EST / 2020.11.28 1856 UTC
Wind: from the E (100 degrees) at 9 MPH (8 KT):0
Visibility: 10 mile(s):0
Sky conditions: clear
Temperature: 3.0 F (-16.1 C)
Windchill: -11 F (-24 C):2
Dew Point: -0.0 F (-17.8 C)
Relative Humidity: 86%
Pressure (altimeter): 29.16 in. Hg (987 hPa)
ob: PAUN 281856Z AUTO 10008KT 10SM CLR M16/M18 A2916 RMK AO2 SLP879 T11611178 FZRANO
cycle: 19

Station Type Date Time Source
PAUN TAF 2020/11/28 18:33 UTC NOAA

TAF PAUN 281730Z 2818/2918 09007KT P6SM VCSH SKC
FM290000 03012KT P6SM BKN050

Example: see airport list